Time;durP1;ratioP1;P1;durP2;ratioP2;P2;SDS_P1;SDS_P2;PMS_P1;PMS_P2;Temp;Humidity;BMP_temperature;BMP_pressure;BME280_temperature;BME280_humidity;BME280_pressure;Samples;Min_cycle;Max_cycle;Signal;HPM_P1;HPM_P2
2023/07/31 00:02:01;;;;;;;0.30;0.30;;;16.20;99.90;;;;;;5097147;28;20078;-73
2023/07/31 00:04:27;;;;;;;0.30;0.30;;;16.20;99.90;;;;;;5097532;28;20044;-75
2023/07/31 00:06:52;;;;;;;0.40;0.40;;;16.20;99.90;;;;;;5097302;28;20437;-75
2023/07/31 00:09:18;;;;;;;0.30;0.30;;;16.20;99.90;;;;;;5097146;28;20043;-75
2023/07/31 00:11:44;;;;;;;0.40;0.40;;;16.20;99.90;;;;;;5096923;28;20521;-75
2023/07/31 00:14:09;;;;;;;0.43;0.43;;;16.20;99.90;;;;;;5097011;28;20075;-75
2023/07/31 00:16:35;;;;;;;0.50;0.50;;;16.20;99.90;;;;;;5096820;28;20043;-74
2023/07/31 00:19:00;;;;;;;0.30;0.30;;;16.20;99.90;;;;;;5096838;28;20040;-75
2023/07/31 00:21:26;;;;;;;0.67;0.53;;;16.10;99.90;;;;;;5096795;28;20044;-74
2023/07/31 00:23:52;;;;;;;0.40;0.40;;;16.10;99.90;;;;;;5096691;28;20070;-73
2023/07/31 00:26:17;;;;;;;0.73;0.40;;;16.10;99.90;;;;;;5096836;28;20468;-73
2023/07/31 00:28:43;;;;;;;0.40;0.40;;;16.00;99.90;;;;;;5096627;28;20051;-74
2023/07/31 00:31:08;;;;;;;0.30;0.30;;;16.00;99.90;;;;;;5096683;28;20038;-75
2023/07/31 00:33:35;;;;;;;0.30;0.30;;;16.00;99.90;;;;;;5096641;28;20464;-74
2023/07/31 00:36:00;;;;;;;0.40;0.40;;;16.00;99.90;;;;;;5096454;28;20082;-74
2023/07/31 00:38:26;;;;;;;0.30;0.30;;;16.00;99.90;;;;;;5096012;28;20048;-72
2023/07/31 00:40:51;;;;;;;0.40;0.40;;;15.90;99.90;;;;;;5096261;28;20428;-72
2023/07/31 00:43:17;;;;;;;0.47;0.47;;;15.90;99.90;;;;;;5096348;28;20468;-75
2023/07/31 00:45:43;;;;;;;0.40;0.40;;;15.90;99.90;;;;;;5096822;28;20040;-75
2023/07/31 00:48:08;;;;;;;0.30;0.30;;;15.90;99.90;;;;;;5096292;28;20353;-73
2023/07/31 00:50:36;;;;;;;0.23;0.23;;;16.00;99.90;;;;;;5096630;28;20047;-73
2023/07/31 00:53:01;;;;;;;0.30;0.30;;;15.80;99.90;;;;;;5095074;28;20119;-73
2023/07/31 00:55:27;;;;;;;0.20;0.20;;;15.80;99.90;;;;;;5096192;28;20123;-74
2023/07/31 00:57:55;;;;;;;0.30;0.30;;;15.80;99.90;;;;;;5096121;28;20123;-74
2023/07/31 01:00:21;;;;;;;0.25;0.25;;;15.80;99.90;;;;;;5095088;28;20051;-74
2023/07/31 01:02:48;;;;;;;0.67;0.37;;;15.80;99.90;;;;;;5096524;28;20035;-74
2023/07/31 01:05:14;;;;;;;0.30;0.30;;;15.80;99.90;;;;;;5095965;28;20039;-72
2023/07/31 01:08:14;;;;;;;0.30;0.30;;;15.80;99.90;;;;;;5096173;28;20112;-74
2023/07/31 01:10:54;;;;;;;0.38;0.38;;;15.80;99.90;;;;;;5064491;28;20063;-74
2023/07/31 01:13:21;;;;;;;0.20;0.20;;;15.80;99.90;;;;;;5096255;28;20087;-73
2023/07/31 01:15:46;;;;;;;;;;;15.80;99.90;;;;;;5096319;28;20413;-73
2023/07/31 01:18:12;;;;;;;0.30;0.30;;;15.70;99.90;;;;;;5095584;28;20006;-72
2023/07/31 01:20:42;;;;;;;0.30;0.30;;;15.70;99.90;;;;;;5095599;28;20047;-74
2023/07/31 01:23:34;;;;;;;0.30;0.30;;;15.70;99.90;;;;;;5096372;28;20092;-73
2023/07/31 01:26:17;;;;;;;0.30;0.30;;;15.70;99.90;;;;;;5096087;28;20036;-73
2023/07/31 01:29:21;;;;;;;0.38;0.38;;;15.70;99.90;;;;;;5095649;28;20040;-74
2023/07/31 01:31:48;;;;;;;0.30;0.30;;;15.80;99.90;;;;;;5050293;28;20052;-72
2023/07/31 01:34:17;;;;;;;0.30;0.30;;;15.70;99.90;;;;;;5095592;28;20038;-75
2023/07/31 01:36:43;;;;;;;0.75;0.40;;;15.70;99.90;;;;;;5095393;28;20075;-74
2023/07/31 01:39:09;;;;;;;0.30;0.30;;;15.60;99.90;;;;;;5095031;28;20538;-74
2023/07/31 01:41:34;;;;;;;0.30;0.30;;;15.70;99.90;;;;;;5095229;28;20044;-74
2023/07/31 01:44:00;;;;;;;0.40;0.40;;;15.60;99.90;;;;;;5095147;28;20040;-74
2023/07/31 01:46:26;;;;;;;0.30;0.30;;;15.60;99.90;;;;;;5095131;28;20127;-73
2023/07/31 01:48:51;;;;;;;0.30;0.30;;;15.70;99.90;;;;;;5094623;28;20032;-74
2023/07/31 01:51:17;;;;;;;0.50;0.50;;;15.60;99.90;;;;;;5094977;28;20047;-74
2023/07/31 01:53:42;;;;;;;0.47;0.47;;;15.60;99.90;;;;;;5095091;28;20036;-73
2023/07/31 01:56:08;;;;;;;0.40;0.40;;;15.60;99.90;;;;;;5094918;28;20036;-72
2023/07/31 01:58:34;;;;;;;0.30;0.30;;;15.60;99.90;;;;;;5094916;28;20051;-73
2023/07/31 02:00:59;;;;;;;0.30;0.30;;;15.60;99.90;;;;;;5094696;28;20494;-74
2023/07/31 02:03:25;;;;;;;0.28;0.28;;;15.60;99.90;;;;;;5094892;28;20052;-74
2023/07/31 02:05:51;;;;;;;0.30;0.30;;;15.60;99.90;;;;;;5094784;28;20032;-73
2023/07/31 02:08:17;;;;;;;0.30;0.30;;;15.50;99.90;;;;;;5094833;28;20424;-74
2023/07/31 02:10:42;;;;;;;0.37;0.30;;;15.60;99.90;;;;;;5094391;28;20123;-75
2023/07/31 02:13:08;;;;;;;0.30;0.30;;;15.60;99.90;;;;;;5094648;28;20036;-74
2023/07/31 02:15:34;;;;;;;0.40;0.40;;;15.60;99.90;;;;;;5095069;28;20052;-73
2023/07/31 02:18:00;;;;;;;0.30;0.30;;;15.60;99.90;;;;;;5094368;28;20118;-72
2023/07/31 02:20:26;;;;;;;0.60;0.60;;;15.60;99.90;;;;;;5094504;28;20464;-72
2023/07/31 02:22:51;;;;;;;0.30;0.30;;;15.50;99.90;;;;;;5094857;28;20061;-73
2023/07/31 02:25:17;;;;;;;0.40;0.40;;;15.60;99.90;;;;;;5094603;28;20096;-73
2023/07/31 02:27:43;;;;;;;0.30;0.30;;;15.60;99.90;;;;;;5094156;28;20170;-72
2023/07/31 02:30:09;;;;;;;0.30;0.30;;;15.60;99.90;;;;;;5094706;28;20525;-74
2023/07/31 02:32:34;;;;;;;0.30;0.30;;;15.60;99.90;;;;;;5094390;28;20092;-72
2023/07/31 02:35:00;;;;;;;0.30;0.30;;;15.70;99.90;;;;;;5094351;28;20361;-73
2023/07/31 02:37:26;;;;;;;0.20;0.20;;;15.60;99.90;;;;;;5094255;28;20109;-72
2023/07/31 02:39:51;;;;;;;0.30;0.30;;;15.60;99.90;;;;;;5094289;28;20146;-72
2023/07/31 02:42:17;;;;;;;0.50;0.50;;;15.70;99.90;;;;;;5093988;28;20119;-73
2023/07/31 02:44:43;;;;;;;0.30;0.30;;;15.70;99.90;;;;;;5094211;28;20075;-73
2023/07/31 02:47:08;;;;;;;0.50;0.50;;;15.60;99.90;;;;;;5094127;28;20094;-73
2023/07/31 02:49:34;;;;;;;0.40;0.40;;;15.70;99.90;;;;;;5094192;28;20043;-73
2023/07/31 02:52:00;;;;;;;0.30;0.30;;;15.60;99.90;;;;;;5094187;28;20050;-73
2023/07/31 02:54:25;;;;;;;0.30;0.30;;;15.60;99.90;;;;;;5094043;28;20126;-74
2023/07/31 02:56:51;;;;;;;0.20;0.20;;;15.70;99.90;;;;;;5093808;28;20036;-74
2023/07/31 02:59:17;;;;;;;0.37;0.30;;;15.70;99.90;;;;;;5093990;28;20081;-73
2023/07/31 03:01:42;;;;;;;0.30;0.30;;;15.70;99.90;;;;;;5093786;28;20039;-73
2023/07/31 03:04:08;;;;;;;0.30;0.30;;;15.70;99.90;;;;;;5094083;28;20460;-73
2023/07/31 03:06:33;;;;;;;0.30;0.30;;;15.70;99.90;;;;;;5094112;28;20032;-73
2023/07/31 03:08:59;;;;;;;0.30;0.30;;;15.70;99.90;;;;;;5093864;28;20123;-73
2023/07/31 03:11:25;;;;;;;0.30;0.30;;;15.70;99.90;;;;;;5093557;28;20475;-74
2023/07/31 03:13:50;;;;;;;0.30;0.30;;;15.70;99.90;;;;;;5093799;28;20048;-74
2023/07/31 03:16:16;;;;;;;0.30;0.30;;;15.70;99.90;;;;;;5093773;28;20047;-73
2023/07/31 03:18:41;;;;;;;0.30;0.30;;;15.70;99.90;;;;;;5093484;28;20040;-74
2023/07/31 03:21:07;;;;;;;0.30;0.30;;;15.70;99.90;;;;;;5093724;28;20047;-74
2023/07/31 03:23:33;;;;;;;0.30;0.30;;;15.70;99.90;;;;;;5093799;28;20044;-74
2023/07/31 03:26:00;;;;;;;0.30;0.30;;;15.80;99.90;;;;;;5093457;28;20041;-73
2023/07/31 03:28:26;;;;;;;0.40;0.40;;;15.80;99.90;;;;;;5093578;28;20036;-72
2023/07/31 03:30:52;;;;;;;0.30;0.30;;;15.80;99.90;;;;;;5093453;28;20040;-71
2023/07/31 03:33:18;;;;;;;0.30;0.30;;;15.90;99.90;;;;;;5093754;28;20036;-71
2023/07/31 03:35:44;;;;;;;0.30;0.30;;;15.80;99.90;;;;;;5093542;28;20479;-72
2023/07/31 03:38:10;;;;;;;0.30;0.30;;;15.90;99.90;;;;;;5093801;28;20123;-73
2023/07/31 03:40:35;;;;;;;0.30;0.30;;;15.90;99.90;;;;;;5093671;28;20097;-72
2023/07/31 03:43:01;;;;;;;0.30;0.30;;;15.90;99.90;;;;;;5093601;28;20040;-74
2023/07/31 03:45:26;;;;;;;0.30;0.30;;;15.90;99.90;;;;;;5093588;28;20036;-73
2023/07/31 03:47:53;;;;;;;0.30;0.30;;;15.90;99.90;;;;;;5093523;28;20479;-74
2023/07/31 03:50:19;;;;;;;0.30;0.30;;;15.90;99.90;;;;;;5093551;28;20036;-73
2023/07/31 03:52:44;;;;;;;0.30;0.30;;;15.90;99.90;;;;;;5092333;28;20065;-74
2023/07/31 03:55:10;;;;;;;0.30;0.30;;;15.90;99.90;;;;;;5093469;28;20055;-73
2023/07/31 03:57:36;;;;;;;0.40;0.40;;;15.90;99.90;;;;;;5093246;28;20081;-74
2023/07/31 04:00:01;;;;;;;0.30;0.30;;;15.90;99.90;;;;;;5093486;28;20040;-73
2023/07/31 04:02:27;;;;;;;0.30;0.30;;;15.90;99.90;;;;;;5093393;28;20047;-72
2023/07/31 04:04:53;;;;;;;0.30;0.30;;;15.90;99.90;;;;;;5093590;28;20079;-72
2023/07/31 04:07:18;;;;;;;0.30;0.30;;;15.90;99.90;;;;;;5093296;28;20117;-72
2023/07/31 04:09:44;;;;;;;0.30;0.30;;;15.90;99.90;;;;;;5093269;28;20570;-73
2023/07/31 04:12:09;;;;;;;0.20;0.20;;;16.00;99.90;;;;;;5093228;28;20063;-72
2023/07/31 04:14:35;;;;;;;0.30;0.30;;;16.00;99.90;;;;;;5097062;28;20044;-73
2023/07/31 04:17:01;;;;;;;0.30;0.30;;;15.90;99.90;;;;;;5097244;28;20439;-74
2023/07/31 04:19:26;;;;;;;0.30;0.30;;;16.00;99.90;;;;;;5096898;28;20044;-74
2023/07/31 04:21:52;;;;;;;0.30;0.30;;;16.00;99.90;;;;;;5096907;28;20051;-73
2023/07/31 04:24:24;;;;;;;0.37;0.37;;;16.00;99.90;;;;;;5096715;28;20075;-70
2023/07/31 04:26:50;;;;;;;0.30;0.30;;;16.10;99.90;;;;;;5096741;28;20097;-71
2023/07/31 04:29:15;;;;;;;0.30;0.30;;;16.00;99.90;;;;;;5097159;28;20048;-71
2023/07/31 04:31:41;;;;;;;0.30;0.30;;;16.00;99.90;;;;;;5096714;28;20051;-71
2023/07/31 04:34:07;;;;;;;0.30;0.30;;;16.10;99.90;;;;;;5096806;28;20040;-70
2023/07/31 04:36:34;;;;;;;0.30;0.30;;;16.10;99.90;;;;;;5096447;28;20036;-71
2023/07/31 04:39:00;;;;;;;0.40;0.40;;;16.10;99.90;;;;;;5096509;28;20043;-71
2023/07/31 04:41:26;;;;;;;0.20;0.20;;;16.10;99.90;;;;;;5096481;28;20044;-71
2023/07/31 04:43:52;;;;;;;0.30;0.30;;;16.10;99.90;;;;;;5096797;28;20491;-69
2023/07/31 04:46:17;;;;;;;0.30;0.30;;;16.10;99.90;;;;;;5096385;28;20077;-71
2023/07/31 04:48:43;;;;;;;0.30;0.30;;;16.10;99.90;;;;;;5096203;28;20036;-71
2023/07/31 04:51:09;;;;;;;0.30;0.30;;;16.10;99.90;;;;;;5096266;28;20410;-72
2023/07/31 04:53:35;;;;;;;0.30;0.30;;;16.00;99.90;;;;;;5096346;28;20055;-73
2023/07/31 04:56:01;;;;;;;0.30;0.30;;;16.10;99.90;;;;;;5096028;28;20074;-73
2023/07/31 04:58:26;;;;;;;0.30;0.30;;;16.10;99.90;;;;;;5096194;28;20048;-74
2023/07/31 05:00:52;;;;;;;0.47;0.40;;;16.10;99.90;;;;;;5096520;28;20123;-73
2023/07/31 05:03:18;;;;;;;0.30;0.30;;;16.10;99.90;;;;;;5095964;28;20036;-74
2023/07/31 05:05:43;;;;;;;0.30;0.30;;;16.10;99.90;;;;;;5096272;28;20056;-71
2023/07/31 05:08:09;;;;;;;0.40;0.40;;;16.20;99.90;;;;;;5095938;28;20044;-72
2023/07/31 05:10:34;;;;;;;0.30;0.30;;;16.10;99.90;;;;;;5096211;28;20036;-70
2023/07/31 05:13:00;;;;;;;0.32;0.32;;;16.10;99.90;;;;;;5095862;28;20086;-73
2023/07/31 05:15:26;;;;;;;0.40;0.40;;;16.20;99.90;;;;;;5095715;28;20044;-71
2023/07/31 05:17:51;;;;;;;0.73;0.45;;;16.20;99.90;;;;;;5095491;28;20032;-70
2023/07/31 05:20:17;;;;;;;0.40;0.40;;;16.20;99.90;;;;;;5095982;28;20048;-72
2023/07/31 05:22:43;;;;;;;0.40;0.40;;;16.20;99.90;;;;;;5095564;28;20035;-70
2023/07/31 05:25:09;;;;;;;0.40;0.40;;;16.20;99.90;;;;;;5094501;28;20044;-70
2023/07/31 05:27:34;;;;;;;0.30;0.30;;;16.30;99.90;;;;;;5095530;28;20135;-70
2023/07/31 05:30:00;;;;;;;2.07;0.77;;;16.20;99.90;;;;;;5095951;28;20464;-69
2023/07/31 05:32:26;;;;;;;2.37;0.70;;;16.30;99.90;;;;;;5095740;28;20046;-71
2023/07/31 05:34:53;;;;;;;0.30;0.30;;;16.30;99.90;;;;;;5095456;28;20043;-73
2023/07/31 05:37:18;;;;;;;0.57;0.57;;;16.30;99.90;;;;;;5095347;28;20086;-73
2023/07/31 05:39:44;;;;;;;1.87;0.93;;;16.30;99.90;;;;;;5095338;28;20083;-72
2023/07/31 05:42:10;;;;;;;0.30;0.30;;;16.40;99.90;;;;;;5095307;28;20036;-73
2023/07/31 05:44:36;;;;;;;0.57;0.57;;;16.30;99.90;;;;;;5095280;28;20515;-71
2023/07/31 05:47:02;;;;;;;0.37;0.37;;;16.40;99.90;;;;;;5094537;28;20066;-72
2023/07/31 05:49:27;;;;;;;0.70;0.70;;;16.40;99.90;;;;;;5095055;28;20043;-72
2023/07/31 05:51:53;;;;;;;0.40;0.40;;;16.40;99.90;;;;;;5095359;28;20047;-73
2023/07/31 05:54:18;;;;;;;0.60;0.60;;;16.40;99.90;;;;;;5095179;28;20043;-72
2023/07/31 05:56:44;;;;;;;0.40;0.40;;;16.40;99.90;;;;;;5095052;28;20044;-72
2023/07/31 05:59:13;;;;;;;0.80;0.80;;;16.50;99.90;;;;;;5095024;28;20036;-74
2023/07/31 06:01:39;;;;;;;0.50;0.50;;;16.40;99.90;;;;;;5095278;28;20040;-73
2023/07/31 06:04:04;;;;;;;1.03;0.93;;;16.40;99.90;;;;;;5094934;28;20047;-72
2023/07/31 06:06:30;;;;;;;0.60;0.60;;;16.50;99.90;;;;;;5094812;28;20040;-71
2023/07/31 06:08:56;;;;;;;2.37;0.73;;;16.50;99.90;;;;;;5094879;28;20051;-72
2023/07/31 06:11:21;;;;;;;0.37;0.37;;;16.50;99.90;;;;;;5094723;28;20097;-70
2023/07/31 06:13:48;;;;;;;0.30;0.30;;;16.50;99.90;;;;;;5094686;28;20127;-70
2023/07/31 06:16:15;;;;;;;0.30;0.30;;;16.40;99.90;;;;;;5094729;28;20259;-71
2023/07/31 06:18:41;;;;;;;1.08;0.90;;;16.50;99.90;;;;;;5094754;28;20087;-74
2023/07/31 06:21:07;;;;;;;0.40;0.40;;;16.50;99.90;;;;;;5094733;28;20479;-79
2023/07/31 06:23:33;;;;;;;0.97;0.50;;;16.50;99.90;;;;;;5094697;28;20036;-74
2023/07/31 06:25:59;;;;;;;1.10;0.70;;;16.50;99.90;;;;;;5094401;28;20036;-79
2023/07/31 06:28:29;;;;;;;0.80;0.60;;;16.50;99.90;;;;;;5094540;28;20032;-75
2023/07/31 06:30:55;;;;;;;0.73;0.73;;;16.60;99.90;;;;;;5094335;28;20040;-74
2023/07/31 06:33:20;;;;;;;1.97;1.17;;;16.50;99.90;;;;;;5094512;28;20043;-78
2023/07/31 06:35:46;;;;;;;1.03;0.77;;;16.60;99.90;;;;;;5093816;28;20075;-70
2023/07/31 06:38:12;;;;;;;0.60;0.60;;;16.60;99.90;;;;;;5094058;28;20121;-69
2023/07/31 06:40:37;;;;;;;0.60;0.60;;;16.60;99.90;;;;;;5094197;28;20067;-71
2023/07/31 06:43:07;;;;;;;0.50;0.50;;;16.70;99.90;;;;;;5094614;28;20036;-71
2023/07/31 06:45:36;;;;;;;0.40;0.40;;;16.50;99.90;;;;;;5094153;28;20040;-69
2023/07/31 06:48:03;;;;;;;0.93;0.75;;;16.60;99.90;;;;;;5094166;28;20059;-69
2023/07/31 06:50:29;;;;;;;2.45;0.80;;;16.60;99.90;;;;;;5094264;28;20480;-70
2023/07/31 06:52:55;;;;;;;0.45;0.45;;;16.60;99.90;;;;;;5094016;28;20511;-71
2023/07/31 06:55:22;;;;;;;0.70;0.70;;;16.60;99.90;;;;;;5094030;28;20072;-70
2023/07/31 06:57:48;;;;;;;;;;;16.60;99.90;;;;;;5094354;28;20040;-70
2023/07/31 07:00:14;;;;;;;0.95;0.60;;;16.60;99.90;;;;;;5093945;28;20010;-71
2023/07/31 07:02:40;;;;;;;1.40;0.82;;;16.60;99.90;;;;;;5093968;28;20403;-74
2023/07/31 07:05:06;;;;;;;0.40;0.40;;;16.60;99.90;;;;;;5093833;28;20044;-76
2023/07/31 07:07:32;;;;;;;0.43;0.43;;;16.60;99.90;;;;;;5093988;28;20353;-75
2023/07/31 07:09:59;;;;;;;0.30;0.30;;;16.60;99.90;;;;;;5092820;28;20085;-74
2023/07/31 07:12:25;;;;;;;;;;;16.60;99.90;;;;;;5094805;28;20044;-76
2023/07/31 07:14:52;;;;;;;0.65;0.65;;;16.60;99.90;;;;;;5093884;28;19923;-77
2023/07/31 07:17:19;;;;;;;0.55;0.55;;;16.70;99.90;;;;;;5093700;28;20044;-74
2023/07/31 07:19:45;;;;;;;0.47;0.47;;;16.60;99.90;;;;;;5093922;28;20051;-77
2023/07/31 07:22:11;;;;;;;1.27;0.98;;;16.70;99.90;;;;;;5093742;28;20044;-75
2023/07/31 07:24:37;;;;;;;0.33;0.33;;;16.60;99.90;;;;;;5093678;28;20043;-75
2023/07/31 07:27:03;;;;;;;0.60;0.60;;;16.70;99.90;;;;;;5093786;28;20105;-73
2023/07/31 07:29:29;;;;;;;0.70;0.70;;;16.70;99.90;;;;;;5093662;28;20039;-72
2023/07/31 07:31:54;;;;;;;0.77;0.70;;;16.70;99.90;;;;;;5093991;28;20278;-73
2023/07/31 07:34:24;;;;;;;0.30;0.30;;;16.70;99.90;;;;;;5093616;28;20123;-70
2023/07/31 07:36:49;;;;;;;0.57;0.50;;;16.70;99.90;;;;;;5097807;28;20051;-73
2023/07/31 07:39:15;;;;;;;1.60;0.50;;;16.70;99.90;;;;;;5093795;28;20464;-73
2023/07/31 07:41:40;;;;;;;0.80;0.80;;;16.70;99.90;;;;;;5093285;28;20044;-74
2023/07/31 07:44:08;;;;;;;0.70;0.70;;;16.70;99.90;;;;;;5093509;28;20036;-74
2023/07/31 07:46:33;;;;;;;0.82;0.55;;;16.70;99.90;;;;;;5093625;28;20100;-75
2023/07/31 07:48:59;;;;;;;0.50;0.40;;;16.80;99.90;;;;;;5096616;28;20118;-75
2023/07/31 07:51:25;;;;;;;0.50;0.50;;;16.70;99.90;;;;;;5097499;28;20144;-68
2023/07/31 07:53:50;;;;;;;1.17;0.77;;;16.60;99.90;;;;;;5097148;28;20492;-69
2023/07/31 07:56:16;;;;;;;0.53;0.43;;;16.60;99.90;;;;;;5097292;28;20075;-69
2023/07/31 07:58:41;;;;;;;0.47;0.47;;;16.60;99.90;;;;;;5097303;28;20046;-69
2023/07/31 08:01:07;;;;;;;0.33;0.33;;;16.70;99.90;;;;;;5097279;28;20172;-77
2023/07/31 08:03:33;;;;;;;1.10;0.57;;;16.60;99.90;;;;;;5097114;28;20459;-76
2023/07/31 08:06:02;;;;;;;1.13;0.97;;;16.70;99.90;;;;;;5097092;28;20123;-72
2023/07/31 08:08:30;;;;;;;0.65;0.60;;;16.70;99.90;;;;;;5097226;28;20085;-73
2023/07/31 08:10:56;;;;;;;0.43;0.43;;;16.70;99.90;;;;;;5097097;28;20047;-74
2023/07/31 08:13:21;;;;;;;0.57;0.57;;;16.80;99.90;;;;;;5097128;28;20044;-72
2023/07/31 08:15:47;;;;;;;0.63;0.60;;;16.80;99.90;;;;;;5097234;28;20077;-77
2023/07/31 08:18:13;;;;;;;0.53;0.40;;;16.80;99.90;;;;;;5097108;28;20448;-78
2023/07/31 08:20:38;;;;;;;0.40;0.40;;;16.80;99.90;;;;;;5097009;28;20464;-77
2023/07/31 08:23:04;;;;;;;2.27;0.40;;;16.80;99.90;;;;;;5095511;28;20488;-73
2023/07/31 08:25:30;;;;;;;0.80;0.57;;;16.80;99.90;;;;;;5096791;28;20044;-73
2023/07/31 08:27:55;;;;;;;0.30;0.30;;;16.70;99.90;;;;;;5096704;28;20032;-74
2023/07/31 08:30:21;;;;;;;0.40;0.40;;;16.80;99.90;;;;;;5095354;28;20464;-75
2023/07/31 08:32:47;;;;;;;0.33;0.33;;;16.90;99.90;;;;;;5096632;28;20036;-73
2023/07/31 08:35:13;;;;;;;0.50;0.50;;;16.90;99.90;;;;;;5096461;28;20036;-73
2023/07/31 08:37:38;;;;;;;0.43;0.43;;;16.90;99.90;;;;;;5096315;28;20166;-73
2023/07/31 08:40:05;;;;;;;0.40;0.40;;;16.90;99.90;;;;;;5096243;28;20193;-75
2023/07/31 08:42:31;;;;;;;0.30;0.30;;;16.90;99.90;;;;;;5096366;28;20040;-75
2023/07/31 08:44:59;;;;;;;0.30;0.30;;;16.90;99.90;;;;;;5096383;28;20124;-75
2023/07/31 08:47:26;;;;;;;0.40;0.40;;;17.00;99.90;;;;;;5096160;28;20430;-76
2023/07/31 08:49:54;;;;;;;0.30;0.30;;;17.00;99.90;;;;;;5096325;28;20054;-75
2023/07/31 08:52:20;;;;;;;0.40;0.40;;;17.00;99.90;;;;;;5095870;28;20036;-76
2023/07/31 08:54:45;;;;;;;0.30;0.30;;;17.10;99.90;;;;;;5096199;28;20050;-75
2023/07/31 08:57:11;;;;;;;0.30;0.30;;;17.10;99.90;;;;;;5096032;28;20569;-74
2023/07/31 08:59:38;;;;;;;0.30;0.30;;;17.10;99.90;;;;;;5095291;28;20076;-76
2023/07/31 09:02:08;;;;;;;0.40;0.40;;;17.20;99.90;;;;;;5094558;28;20127;-74
2023/07/31 09:04:34;;;;;;;0.80;0.68;;;17.20;99.90;;;;;;5095742;28;20040;-75
2023/07/31 09:07:03;;;;;;;0.30;0.30;;;17.20;99.90;;;;;;5095856;28;20032;-74
2023/07/31 09:09:29;;;;;;;0.45;0.45;;;17.30;99.90;;;;;;5095931;28;20055;-75
2023/07/31 09:11:55;;;;;;;0.40;0.40;;;17.30;99.90;;;;;;5095897;28;20066;-74
2023/07/31 09:14:21;;;;;;;0.30;0.30;;;17.40;99.90;;;;;;5095719;28;20048;-74
2023/07/31 09:16:59;;;;;;;0.30;0.30;;;17.50;99.90;;;;;;5095675;28;20043;-73
2023/07/31 09:19:33;;;;;;;0.52;0.52;;;17.60;99.90;;;;;;5095647;28;20091;-73
2023/07/31 09:22:00;;;;;;;0.40;0.40;;;17.60;99.90;;;;;;5096389;28;20040;-75
2023/07/31 09:24:31;;;;;;;0.30;0.30;;;17.60;99.90;;;;;;5093934;28;20090;-73
2023/07/31 09:26:58;;;;;;;0.30;0.30;;;17.60;99.90;;;;;;5095434;28;20101;-74
2023/07/31 09:29:26;;;;;;;0.60;0.30;;;17.60;99.90;;;;;;5095376;28;20051;-73
2023/07/31 09:31:52;;;;;;;0.30;0.30;;;17.60;99.90;;;;;;5095229;28;20032;-75
2023/07/31 09:34:18;;;;;;;0.40;0.40;;;17.70;99.90;;;;;;5094896;28;20028;-75
2023/07/31 09:36:46;;;;;;;0.30;0.30;;;17.70;99.90;;;;;;5095082;28;20043;-74
2023/07/31 09:39:13;;;;;;;0.30;0.30;;;17.70;99.90;;;;;;5095161;28;20123;-74
2023/07/31 09:41:41;;;;;;;0.50;0.50;;;17.70;99.90;;;;;;5095209;28;20456;-75
2023/07/31 09:44:07;;;;;;;0.50;0.50;;;17.80;99.90;;;;;;5095081;28;20383;-78
2023/07/31 09:46:35;;;;;;;0.30;0.30;;;17.90;99.90;;;;;;5095195;28;20036;-76
2023/07/31 09:49:05;;;;;;;0.20;0.20;;;17.90;99.90;;;;;;5094764;28;20278;-77
2023/07/31 09:51:31;;;;;;;0.20;0.20;;;18.00;99.90;;;;;;5094934;28;20044;-79
2023/07/31 09:53:56;;;;;;;0.30;0.30;;;18.00;99.90;;;;;;5094971;28;20036;-76
2023/07/31 09:56:23;;;;;;;0.30;0.30;;;18.10;99.90;;;;;;5094861;28;20036;-76
2023/07/31 09:58:50;;;;;;;0.30;0.30;;;18.10;99.90;;;;;;5094403;28;20049;-77
2023/07/31 10:01:15;;;;;;;0.30;0.30;;;18.10;99.90;;;;;;5093670;28;20483;-78
2023/07/31 10:03:44;;;;;;;0.20;0.20;;;18.10;99.90;;;;;;5094254;28;20101;-78
2023/07/31 10:06:11;;;;;;;0.30;0.30;;;18.10;99.90;;;;;;5094374;28;20050;-76
2023/07/31 10:08:37;;;;;;;0.30;0.30;;;18.10;99.90;;;;;;5094518;28;20044;-77
2023/07/31 10:11:04;;;;;;;0.20;0.20;;;18.10;99.90;;;;;;5093968;28;20460;-76
2023/07/31 10:13:30;;;;;;;0.30;0.30;;;18.10;99.90;;;;;;5094788;28;20044;-78
2023/07/31 10:15:59;;;;;;;0.30;0.30;;;18.00;99.90;;;;;;5094072;28;20032;-75
2023/07/31 10:18:25;;;;;;;0.30;0.30;;;18.00;99.90;;;;;;5094365;28;20044;-77
2023/07/31 10:20:52;;;;;;;0.32;0.30;;;18.10;99.90;;;;;;5094447;28;20109;-76
2023/07/31 10:23:18;;;;;;;0.30;0.30;;;18.10;99.90;;;;;;5094469;28;20052;-74
2023/07/31 10:25:45;;;;;;;0.40;0.40;;;18.20;99.90;;;;;;5094296;28;20388;-75
2023/07/31 10:28:11;;;;;;;0.73;0.43;;;18.30;99.90;;;;;;5094150;28;20040;-69
2023/07/31 10:30:39;;;;;;;0.40;0.40;;;18.30;99.90;;;;;;5093776;28;20047;-70
2023/07/31 10:33:05;;;;;;;0.30;0.30;;;18.30;99.90;;;;;;5094278;28;20056;-70
2023/07/31 10:35:31;;;;;;;0.20;0.20;;;18.40;99.90;;;;;;5094274;28;20345;-70
2023/07/31 10:38:11;;;;;;;0.60;0.40;;;18.40;99.90;;;;;;5094024;28;20039;-70
2023/07/31 10:40:37;;;;;;;0.30;0.30;;;18.50;99.90;;;;;;5093949;28;20051;-69
2023/07/31 10:43:03;;;;;;;0.97;0.63;;;18.50;99.90;;;;;;5094129;28;20408;-71
2023/07/31 10:45:36;;;;;;;0.30;0.30;;;18.50;99.90;;;;;;5093640;28;20044;-73
2023/07/31 10:48:12;;;;;;;0.20;0.20;;;18.60;99.90;;;;;;5093869;28;20047;-73
2023/07/31 10:50:38;;;;;;;0.20;0.20;;;18.60;99.90;;;;;;5093784;28;20043;-76
2023/07/31 10:53:04;;;;;;;;;;;18.60;99.90;;;;;;5094268;28;20036;-73
2023/07/31 10:55:40;;;;;;;0.40;0.40;;;18.60;99.90;;;;;;5093652;28;19969;-74
2023/07/31 10:58:07;;;;;;;0.35;0.35;;;18.60;99.90;;;;;;5093383;28;20040;-72
2023/07/31 11:00:33;;;;;;;0.30;0.30;;;18.60;99.90;;;;;;5093836;28;20051;-75
2023/07/31 11:03:02;;;;;;;0.40;0.40;;;18.60;99.90;;;;;;5093662;28;20085;-73
2023/07/31 11:05:53;;;;;;;0.30;0.30;;;18.70;99.90;;;;;;5093592;28;20392;-73
2023/07/31 11:08:19;;;;;;;0.30;0.30;;;18.80;99.90;;;;;;5093262;28;20472;-74
2023/07/31 11:10:46;;;;;;;0.20;0.20;;;18.90;99.90;;;;;;5093500;28;20051;-74
2023/07/31 11:13:11;;;;;;;0.20;0.20;;;19.00;99.90;;;;;;5093627;28;20131;-75
2023/07/31 11:15:37;;;;;;;0.20;0.20;;;19.10;99.90;;;;;;5093681;28;20123;-74
2023/07/31 11:18:05;;;;;;;0.20;0.20;;;19.20;99.90;;;;;;5093180;28;20488;-74
2023/07/31 11:20:34;;;;;;;0.20;0.20;;;19.30;99.90;;;;;;5093248;28;20465;-74
2023/07/31 11:23:09;;;;;;;0.20;0.20;;;19.40;99.90;;;;;;5096703;28;20036;-73
2023/07/31 11:25:35;;;;;;;0.30;0.30;;;19.50;99.90;;;;;;5097548;28;20360;-71
2023/07/31 11:28:08;;;;;;;0.38;0.38;;;19.50;99.90;;;;;;5097470;28;20028;-73
2023/07/31 11:30:35;;;;;;;0.73;0.73;;;19.50;99.90;;;;;;5097617;28;20036;-75
2023/07/31 11:33:05;;;;;;;0.20;0.20;;;19.50;99.90;;;;;;5097655;28;20093;-75
2023/07/31 11:35:32;;;;;;;0.20;0.20;;;19.40;99.90;;;;;;5097151;28;20438;-75
2023/07/31 11:37:58;;;;;;;0.28;0.28;;;19.30;99.90;;;;;;5097340;28;20089;-73
2023/07/31 11:40:28;;;;;;;0.30;0.30;;;19.30;99.90;;;;;;5097325;28;20040;-74
2023/07/31 11:42:58;;;;;;;0.30;0.30;;;19.40;99.90;;;;;;5097551;28;20470;-74
2023/07/31 11:45:27;;;;;;;0.30;0.30;;;19.40;99.90;;;;;;5097041;28;20430;-75
2023/07/31 11:47:54;;;;;;;0.30;0.30;;;19.50;99.90;;;;;;5097255;28;20091;-75
2023/07/31 11:50:20;;;;;;;0.20;0.20;;;19.50;99.90;;;;;;5097281;28;20071;-74
2023/07/31 11:52:48;;;;;;;0.30;0.30;;;19.50;99.90;;;;;;5096993;28;20044;-74
2023/07/31 11:55:15;;;;;;;0.30;0.30;;;19.50;99.90;;;;;;5096921;28;20036;-72
2023/07/31 11:57:43;;;;;;;0.20;0.20;;;19.50;99.90;;;;;;5097478;28;20078;-74
2023/07/31 12:00:11;;;;;;;0.20;0.20;;;19.60;99.90;;;;;;5097033;28;20048;-73
2023/07/31 12:02:39;;;;;;;0.20;0.20;;;19.50;99.90;;;;;;5096970;28;20114;-73
2023/07/31 12:05:06;;;;;;;0.38;0.38;;;19.50;99.90;;;;;;5096990;28;20169;-73
2023/07/31 12:07:52;;;;;;;0.40;0.40;;;19.40;99.90;;;;;;5096447;28;20062;-72
2023/07/31 12:10:31;;;;;;;0.30;0.30;;;19.30;99.90;;;;;;5096900;28;20085;-72
2023/07/31 12:13:01;;;;;;;0.30;0.30;;;19.30;99.90;;;;;;5096830;28;20108;-73
2023/07/31 12:15:38;;;;;;;0.20;0.20;;;19.20;99.90;;;;;;5096750;28;20040;-73
2023/07/31 12:18:12;;;;;;;0.20;0.20;;;19.10;99.90;;;;;;5096633;28;20376;-75
2023/07/31 12:20:57;;;;;;;0.20;0.20;;;19.00;99.90;;;;;;5096498;28;20524;-74
2023/07/31 12:23:29;;;;;;;0.30;0.30;;;19.00;99.90;;;;;;5096526;28;20044;-72
2023/07/31 12:26:12;;;;;;;0.30;0.30;;;18.90;99.90;;;;;;5096777;28;20399;-74
2023/07/31 12:28:45;;;;;;;0.30;0.30;;;18.90;99.90;;;;;;5096750;28;20380;-75
2023/07/31 12:31:13;;;;;;;0.20;0.20;;;18.80;99.90;;;;;;5096558;28;20372;-73
2023/07/31 12:33:39;;;;;;;0.40;0.40;;;18.90;99.90;;;;;;5095505;28;20048;-74
2023/07/31 12:36:13;;;;;;;0.30;0.30;;;19.00;99.90;;;;;;5096435;28;20048;-73
2023/07/31 12:38:39;;;;;;;0.20;0.20;;;19.00;99.90;;;;;;5096296;28;20119;-74
2023/07/31 12:41:06;;;;;;;0.40;0.37;;;19.10;99.90;;;;;;5096206;28;20118;-71
2023/07/31 12:43:33;;;;;;;0.30;0.30;;;19.20;99.90;;;;;;5096032;28;20282;-74
2023/07/31 12:45:59;;;;;;;0.20;0.20;;;19.10;99.90;;;;;;5096355;28;20096;-75
2023/07/31 12:48:25;;;;;;;0.40;0.40;;;19.10;99.90;;;;;;5096221;28;20036;-74